createdAt,value
2023-01-19T00:00:01.927Z,-2.1
2023-01-19T00:15:01.876Z,-2.8
2023-01-19T00:30:02.169Z,-2.7
2023-01-19T00:45:01.504Z,-1.96
2023-01-19T01:00:01.926Z,-1.91
2023-01-19T01:15:02.900Z,-1.9
2023-01-19T01:30:01.987Z,-1.94
2023-01-19T01:45:01.915Z,-1.66
2023-01-19T02:00:02.159Z,-1.16
2023-01-19T02:15:01.831Z,-1.34
2023-01-19T02:30:02.138Z,-1.39
2023-01-19T02:45:01.365Z,-1.88
2023-01-19T03:00:01.862Z,-1.79
2023-01-19T03:15:02.790Z,-2.2
2023-01-19T03:30:02.175Z,-2.27
2023-01-19T03:45:01.416Z,-2.46
2023-01-19T04:00:01.839Z,-2.57
2023-01-19T04:15:01.757Z,-2.27
2023-01-19T04:30:02.048Z,-2.46
2023-01-19T04:45:02.667Z,-2.29
2023-01-19T05:00:01.670Z,-2.44
2023-01-19T05:15:01.359Z,-2.31
2023-01-19T05:30:01.659Z,-2.18
2023-01-19T05:45:02.339Z,-2.27
2023-01-19T06:00:02.666Z,-3
2023-01-19T06:15:02.338Z,-2.76
2023-01-19T06:30:02.305Z,-2.72
2023-01-19T06:45:02.241Z,-3.16
2023-01-19T07:00:02.272Z,-2.83
2023-01-19T07:15:02.306Z,-2.9
2023-01-19T07:30:02.298Z,-3.2
2023-01-19T07:45:02.249Z,-2.61
2023-01-19T08:00:02.098Z,-2.29
2023-01-19T08:15:02.116Z,-2.5
2023-01-19T08:30:02.582Z,-1.64
2023-01-19T08:45:02.406Z,-1.39
2023-01-19T09:00:02.569Z,-1.9
2023-01-19T09:15:01.611Z,0.84
2023-01-19T09:30:02.471Z,0.14
2023-01-19T09:45:01.969Z,0.47
2023-01-19T10:00:02.380Z,0.14
2023-01-19T10:15:02.094Z,0.26
2023-01-19T10:30:02.302Z,0.66
2023-01-19T10:45:01.647Z,0.48
2023-01-19T11:00:02.439Z,0.96
2023-01-19T11:15:01.929Z,1.24
2023-01-19T11:30:02.419Z,0.88
2023-01-19T11:45:01.418Z,1.44
2023-01-19T12:00:02.421Z,2.3
2023-01-19T12:15:01.628Z,2.49
2023-01-19T12:30:02.434Z,2.14
2023-01-19T12:45:02.166Z,1.32
2023-01-19T13:00:02.413Z,1.48
2023-01-19T13:15:01.524Z,1.78
2023-01-19T13:30:02.823Z,2.2
2023-01-19T13:45:01.916Z,1.67
2023-01-19T14:00:02.559Z,1.62
2023-01-19T14:15:02.393Z,1.26
2023-01-19T14:30:02.437Z,1.16
2023-01-19T14:45:01.834Z,0
2023-01-19T15:00:02.484Z,0.2
2023-01-19T15:15:01.869Z,0.61
2023-01-19T15:30:02.530Z,0.84
2023-01-19T15:45:01.582Z,-1.17
2023-01-19T16:00:02.607Z,-2
2023-01-19T16:15:02.259Z,-3.22
2023-01-19T16:30:02.034Z,-3.16
2023-01-19T16:45:01.792Z,-3.24
2023-01-19T17:00:02.694Z,-3.5
2023-01-19T17:15:01.678Z,-3.92
2023-01-19T17:30:02.713Z,-3.44
2023-01-19T17:45:01.982Z,-3.59
2023-01-19T18:00:02.740Z,-3.7
2023-01-19T18:15:02.225Z,-4.7
2023-01-19T18:30:01.588Z,-4.7
2023-01-19T18:45:01.798Z,-4.11
2023-01-19T19:00:02.821Z,-4.17
2023-01-19T19:15:01.865Z,-4.19
2023-01-19T19:30:01.815Z,-4.3
2023-01-19T19:45:01.976Z,-4.52
2023-01-19T20:00:03.013Z,-5
2023-01-19T20:15:01.945Z,-5.7
2023-01-19T20:30:01.879Z,-5.55
2023-01-19T20:45:02.124Z,-6.23
2023-01-19T21:00:01.404Z,-6.71
2023-01-19T21:15:02.163Z,-6.76
2023-01-19T21:30:01.459Z,-6.88
2023-01-19T21:45:02.143Z,-7.38
2023-01-19T22:00:02.041Z,-6.21
2023-01-19T22:15:02.216Z,-6.9
2023-01-19T22:30:02.173Z,-6.94
2023-01-19T22:45:02.209Z,-7.38
2023-01-19T23:00:01.719Z,-7.65
2023-01-19T23:15:02.232Z,-7.4
2023-01-19T23:30:01.692Z,-6.96
2023-01-19T23:45:02.288Z,-5.86
